ROMMA est une association bénévole à but non lucratif. Votre soutien est indispensable : ADHERER à ROMMA ou FAIRE un DON

Taninges - (74, Haute-Savoie)

Vallée du Giffre (635 m)   Longitude: 06° 35' 38" E   Latitude: 46° 06' 21" N Station romma n°98
 

Détail journalier du     <<     >>

Température Precipitation Humidité Pression Vent Dir Rafale Dir. rafale Ensol.
Heure (°C) (mm) (%) (hPa) (km/h) (km/h) (min)
01:00 8.8095101805SSO0
02:00 7.809510181SSO6O0
03:00 7.4096101803SSE0
04:00 6.909510181SSE6O0
05:00 6.709610181SO5SO0
06:00 6.709710181SO6OSO0
07:00 6.509710181ENE5O0
08:00 5.809710181SSO6O0
09:00 6.809710182SSO10SO5
10:00 10.609810171SO8SSO60
11:00 14.409010173OSO10O60
12:00 16.707910172ESE6ONO15
13:00 20.706610162ESE8SSO60
14:00 21.206710156SO15OSO60
15:00 21.3064101510OSO26OSO60
16:00 22.406110157OSO16OSO60
17:00 22.406110145O11O60
18:00 21.106710152NNE8ONO35
19:00 15.908710161S6S0
20:00 13.409110171SSE6ENE0
21:00 12.009310171ENE6OSO0
22:00 11.4095101705SSO0
23:00 9.9095101803E0
minuit 9.3095101703E0

Graphique du 13-10-2019

 

Serveur OMMA